Time;durP1;ratioP1;P1;durP2;ratioP2;P2;SDS_P1;SDS_P2;PMS_P1;PMS_P2;Temp;Humidity;BMP_temperature;BMP_pressure;BME280_temperature;BME280_humidity;BME280_pressure;Samples;Min_cycle;Max_cycle;Signal;HPM_P1;HPM_P2
2024/04/01 00:01:38;;;;;;;11.00;5.00;;;12.00;99.90;;;;;;4954014;28;20039;-89
2024/04/01 00:04:03;;;;;;;14.27;9.43;;;12.00;99.90;;;;;;4938003;28;20038;-90
2024/04/01 00:06:29;;;;;;;14.52;5.93;;;12.00;99.90;;;;;;4937783;28;20043;-89
2024/04/01 00:08:55;;;;;;;14.77;5.22;;;12.00;99.90;;;;;;4937681;28;20046;-89
2024/04/01 00:11:21;;;;;;;12.25;5.20;;;12.00;99.90;;;;;;4954113;28;20038;-90
2024/04/01 00:13:48;;;;;;;14.38;6.13;;;12.00;99.90;;;;;;4937340;28;20042;-90
2024/04/01 00:16:14;;;;;;;16.00;8.93;;;12.00;99.90;;;;;;4937612;28;20058;-90
2024/04/01 00:18:43;;;;;;;10.30;5.13;;;12.10;99.90;;;;;;4937525;28;20027;-90
2024/04/01 00:21:08;;;;;;;10.65;4.72;;;12.10;99.90;;;;;;4954329;28;20098;-89
2024/04/01 00:23:36;;;;;;;12.40;5.70;;;12.10;99.90;;;;;;4953636;28;20039;-90
2024/04/01 00:26:02;;;;;;;14.00;5.75;;;12.10;99.90;;;;;;4953676;28;20487;-90
2024/04/01 00:28:27;;;;;;;12.68;5.18;;;12.10;99.90;;;;;;4937299;28;20644;-90
2024/04/01 00:30:53;;;;;;;10.55;5.43;;;12.10;99.90;;;;;;4953389;28;20042;-90
2024/04/01 00:33:18;;;;;;;16.92;10.23;;;12.00;99.90;;;;;;4953786;28;20042;-89
2024/04/01 00:35:46;;;;;;;15.68;9.75;;;12.10;99.90;;;;;;4937038;28;20112;-90
2024/04/01 00:38:11;;;;;;;11.75;5.53;;;12.10;99.90;;;;;;4971068;28;20049;-90
2024/04/01 00:40:37;;;;;;;15.98;10.25;;;12.00;99.90;;;;;;4936817;28;20035;-91
2024/04/01 00:43:10;;;;;;;12.02;5.10;;;12.10;99.90;;;;;;4970124;28;20078;-91
2024/04/01 00:45:42;;;;;;;13.85;5.68;;;12.10;99.90;;;;;;4953081;28;20102;-90
2024/04/01 00:48:09;;;;;;;12.30;5.13;;;12.00;99.90;;;;;;4937477;28;20034;-91
2024/04/01 00:50:39;;;;;;;9.93;4.57;;;12.00;99.90;;;;;;4936777;28;20077;-90
2024/04/01 00:53:09;;;;;;;11.60;4.55;;;11.90;99.90;;;;;;4937808;28;20039;-91
2024/04/01 00:55:36;;;;;;;13.82;9.45;;;11.90;99.90;;;;;;4953290;28;20110;-90
2024/04/01 00:58:02;;;;;;;13.23;5.38;;;11.90;99.90;;;;;;4971959;28;20074;-90
2024/04/01 01:00:29;;;;;;;14.88;8.70;;;11.90;99.90;;;;;;4969623;28;20515;-90
2024/04/01 01:02:56;;;;;;;14.35;6.00;;;11.90;99.90;;;;;;4953391;28;20125;-90
2024/04/01 01:05:23;;;;;;;14.95;9.25;;;11.90;99.90;;;;;;4936723;28;20049;-90
2024/04/01 01:07:50;;;;;;;12.88;4.90;;;11.90;99.90;;;;;;4969940;28;20065;-89
2024/04/01 01:10:16;;;;;;;10.55;5.57;;;11.80;99.90;;;;;;4936631;28;20130;-90
2024/04/01 01:12:42;;;;;;;12.95;6.05;;;11.80;99.90;;;;;;4953417;28;20030;-91
2024/04/01 01:15:11;;;;;;;12.30;6.35;;;11.70;99.90;;;;;;4969810;28;20066;-91
2024/04/01 01:17:37;;;;;;;13.90;7.00;;;11.70;99.90;;;;;;4952244;28;20089;-90
2024/04/01 01:20:11;;;;;;;16.15;7.05;;;11.60;99.90;;;;;;4952320;28;20042;-91
2024/04/01 01:22:41;;;;;;;14.88;6.90;;;11.60;99.90;;;;;;4952418;28;20039;-91
2024/04/01 01:25:08;;;;;;;15.23;7.45;;;11.60;99.90;;;;;;4953157;28;20038;-90
2024/04/01 01:27:41;;;;;;;16.77;11.80;;;11.60;99.90;;;;;;4969509;28;20057;-90
2024/04/01 01:30:15;;;;;;;14.95;7.30;;;11.70;99.90;;;;;;4952467;28;20064;-91
2024/04/01 01:32:52;;;;;;;16.60;7.22;;;11.60;99.90;;;;;;4970555;28;20047;-90
2024/04/01 01:35:23;;;;;;;13.02;6.75;;;11.60;99.90;;;;;;4937867;28;20078;-91
2024/04/01 01:37:49;;;;;;;13.80;6.35;;;11.50;99.90;;;;;;4971732;28;20552;-90
2024/04/01 01:40:15;;;;;;;15.48;6.95;;;11.50;99.90;;;;;;4975389;28;20062;-89
2024/04/01 01:42:40;;;;;;;21.25;13.23;;;11.40;99.90;;;;;;4962581;28;20035;-90
2024/04/01 01:45:07;;;;;;;15.00;7.50;;;11.50;99.90;;;;;;4952906;28;20030;-90
2024/04/01 01:47:34;;;;;;;12.75;6.45;;;11.40;99.90;;;;;;4951957;28;20037;-90
2024/04/01 01:50:00;;;;;;;13.43;7.50;;;11.40;99.90;;;;;;4936351;28;20125;-90
2024/04/01 01:52:26;;;;;;;19.17;13.95;;;11.30;99.90;;;;;;4936253;28;20139;-90
2024/04/01 01:54:53;;;;;;;20.52;15.20;;;11.40;99.90;;;;;;4969440;28;20758;-90
2024/04/01 01:57:18;;;;;;;17.40;8.20;;;11.40;99.90;;;;;;4968514;28;20724;-89
2024/04/01 01:59:44;;;;;;;19.45;14.65;;;11.30;99.90;;;;;;4951445;28;20070;-90
2024/04/01 02:02:11;;;;;;;14.50;7.10;;;11.30;99.90;;;;;;4951873;28;20456;-91
2024/04/01 02:04:37;;;;;;;16.02;7.55;;;11.30;99.90;;;;;;4933936;28;20097;-90
2024/04/01 02:07:04;;;;;;;14.00;7.40;;;11.20;99.90;;;;;;4969229;28;20054;-91
2024/04/01 02:09:30;;;;;;;13.23;7.80;;;11.20;99.90;;;;;;4951394;28;20506;-90
2024/04/01 02:11:57;;;;;;;16.27;8.23;;;11.10;99.90;;;;;;4955938;28;20038;-91
2024/04/01 02:14:22;;;;;;;16.23;8.73;;;11.10;99.90;;;;;;4952357;28;20035;-91
2024/04/01 02:16:48;;;;;;;21.92;14.52;;;11.00;99.90;;;;;;4935730;28;20039;-90
2024/04/01 02:19:14;;;;;;;13.65;7.78;;;11.10;99.90;;;;;;4951594;28;20514;-90
2024/04/01 02:21:40;;;;;;;13.60;7.43;;;11.10;99.90;;;;;;4951287;28;20086;-90
2024/04/01 02:24:06;;;;;;;18.33;14.00;;;11.00;99.90;;;;;;4951724;28;20434;-91
2024/04/01 02:26:34;;;;;;;15.88;8.25;;;11.00;99.90;;;;;;4951181;28;20030;-90
2024/04/01 02:28:59;;;;;;;15.95;8.38;;;11.00;99.90;;;;;;4951424;28;20795;-90
2024/04/01 02:31:25;;;;;;;13.40;7.28;;;11.00;99.90;;;;;;4951878;28;20035;-90
2024/04/01 02:33:51;;;;;;;16.70;13.73;;;10.90;99.90;;;;;;4951708;28;20046;-90
2024/04/01 02:36:16;;;;;;;13.20;7.50;;;11.00;99.90;;;;;;4951524;28;20077;-90
2024/04/01 02:38:49;;;;;;;16.95;8.77;;;11.00;99.90;;;;;;4968486;28;20408;-89
2024/04/01 02:41:15;;;;;;;15.40;7.65;;;11.00;99.90;;;;;;4951372;28;20117;-90
2024/04/01 02:43:43;;;;;;;14.43;9.05;;;10.90;99.90;;;;;;4935180;28;20563;-90
2024/04/01 02:46:08;;;;;;;22.17;14.85;;;10.90;99.90;;;;;;4968487;28;20495;-90
2024/04/01 02:48:34;;;;;;;14.60;7.45;;;11.00;99.90;;;;;;4951190;28;20034;-90
2024/04/01 02:51:01;;;;;;;20.20;14.80;;;11.00;99.90;;;;;;4935630;28;20562;-90
2024/04/01 02:53:27;;;;;;;13.00;7.38;;;11.00;99.90;;;;;;4968900;28;20027;-90
2024/04/01 02:55:53;;;;;;;14.88;8.07;;;11.00;99.90;;;;;;4967890;28;20031;-90
2024/04/01 02:58:18;;;;;;;19.83;9.30;;;10.90;99.90;;;;;;4951000;28;20126;-90
2024/04/01 03:00:45;;;;;;;21.73;14.68;;;10.90;99.90;;;;;;4968105;28;20451;-90
2024/04/01 03:03:14;;;;;;;14.30;8.25;;;10.90;99.90;;;;;;4968438;28;20165;-89
2024/04/01 03:05:40;;;;;;;13.98;7.70;;;11.00;99.90;;;;;;4968338;28;20113;-90
2024/04/01 03:08:08;;;;;;;17.02;8.43;;;10.90;99.90;;;;;;4951188;28;20166;-89
2024/04/01 03:10:34;;;;;;;16.48;9.25;;;10.90;99.90;;;;;;4934124;28;20050;-90
2024/04/01 03:13:04;;;;;;;19.42;14.85;;;10.90;99.90;;;;;;4968944;28;20050;-89
2024/04/01 03:15:30;;;;;;;18.90;10.68;;;11.00;99.90;;;;;;4951487;28;20121;-91
2024/04/01 03:17:57;;;;;;;21.13;8.43;;;11.00;99.90;;;;;;4968119;28;20046;-90
2024/04/01 03:20:23;;;;;;;19.20;9.73;;;10.90;99.90;;;;;;4934516;28;20479;-89
2024/04/01 03:22:48;;;;;;;17.05;10.13;;;10.90;99.90;;;;;;4934898;28;20159;-90
2024/04/01 03:25:14;;;;;;;16.98;9.23;;;10.90;99.90;;;;;;4968787;28;20750;-90
2024/04/01 03:27:40;;;;;;;16.13;8.45;;;10.80;99.90;;;;;;4950699;28;20049;-90
2024/04/01 03:30:09;;;;;;;17.88;10.02;;;10.80;99.90;;;;;;4950861;28;20039;-90
2024/04/01 03:32:35;;;;;;;17.17;8.57;;;10.80;99.90;;;;;;4971236;28;20053;-90
2024/04/01 03:35:01;;;;;;;20.50;16.63;;;10.80;99.90;;;;;;4939022;28;20066;-91
2024/04/01 03:37:27;;;;;;;18.55;9.38;;;10.90;99.90;;;;;;4954259;28;20049;-90
2024/04/01 03:39:53;;;;;;;15.13;8.25;;;10.90;99.90;;;;;;4954164;28;20039;-90
2024/04/01 03:42:19;;;;;;;18.05;8.88;;;10.90;99.90;;;;;;4938311;28;20157;-90
2024/04/01 03:44:44;;;;;;;22.85;16.92;;;10.90;99.90;;;;;;4953468;28;20035;-90
2024/04/01 03:47:10;;;;;;;16.75;10.15;;;10.90;99.90;;;;;;4937262;28;20070;-89
2024/04/01 03:49:37;;;;;;;16.40;8.35;;;10.90;99.90;;;;;;4937320;28;20034;-90
2024/04/01 03:52:03;;;;;;;19.48;15.30;;;10.90;99.90;;;;;;4956635;28;20706;-92
2024/04/01 03:54:29;;;;;;;18.38;8.52;;;10.90;99.90;;;;;;4953146;28;20159;-89
2024/04/01 03:56:55;;;;;;;14.38;7.95;;;10.80;99.90;;;;;;4971006;28;20084;-89
2024/04/01 03:59:20;;;;;;;15.95;8.38;;;10.70;99.90;;;;;;4953422;28;20547;-90
2024/04/01 04:01:46;;;;;;;15.73;9.00;;;10.60;99.90;;;;;;4938278;28;20038;-90
2024/04/01 04:04:12;;;;;;;17.80;8.55;;;10.60;99.90;;;;;;4971293;28;20163;-90
2024/04/01 04:06:39;;;;;;;16.35;8.93;;;10.60;99.90;;;;;;4970853;28;20494;-90
2024/04/01 04:09:05;;;;;;;17.48;14.93;;;10.60;99.90;;;;;;4971546;28;20062;-91
2024/04/01 04:11:30;;;;;;;15.88;8.13;;;10.60;99.90;;;;;;4956582;28;20089;-90
2024/04/01 04:13:56;;;;;;;14.93;7.95;;;10.60;99.90;;;;;;4957115;28;20093;-90
2024/04/01 04:16:23;;;;;;;18.25;9.02;;;10.50;99.90;;;;;;4981310;28;20062;-90
2024/04/01 04:18:49;;;;;;;12.95;7.95;;;10.40;99.90;;;;;;4958317;28;20050;-91
2024/04/01 04:21:14;;;;;;;12.82;8.15;;;10.40;99.90;;;;;;4953897;28;20046;-90
2024/04/01 04:23:40;;;;;;;12.90;7.75;;;10.30;99.90;;;;;;4953033;28;20550;-91
2024/04/01 04:26:08;;;;;;;14.52;7.50;;;10.30;99.90;;;;;;4970914;28;20037;-91
2024/04/01 04:28:34;;;;;;;15.70;8.90;;;10.20;99.90;;;;;;4953403;28;20043;-91
2024/04/01 04:31:00;;;;;;;14.38;8.32;;;10.20;99.90;;;;;;4953667;28;20044;-91
2024/04/01 04:33:26;;;;;;;14.45;7.53;;;10.10;99.90;;;;;;4971203;28;20045;-90
2024/04/01 04:35:51;;;;;;;16.00;8.93;;;10.10;99.90;;;;;;4953422;28;20035;-91
2024/04/01 04:38:18;;;;;;;18.15;9.23;;;10.10;99.90;;;;;;4971353;28;20410;-91
2024/04/01 04:40:43;;;;;;;15.15;10.02;;;10.00;99.90;;;;;;4936934;28;20041;-91
2024/04/01 04:43:09;;;;;;;13.55;7.93;;;10.00;99.90;;;;;;4969737;28;20039;-91
2024/04/01 04:45:35;;;;;;;14.57;8.02;;;10.00;99.90;;;;;;4937203;28;20046;-91
2024/04/01 04:48:00;;;;;;;16.10;8.75;;;10.00;99.90;;;;;;4952709;28;20150;-91
2024/04/01 04:50:26;;;;;;;16.67;8.13;;;10.00;99.90;;;;;;4936301;28;20039;-91
2024/04/01 04:52:51;;;;;;;19.23;17.23;;;10.00;99.90;;;;;;4953228;28;20043;-91
2024/04/01 04:55:17;;;;;;;18.70;9.32;;;10.00;99.90;;;;;;4971047;28;20545;-91
2024/04/01 04:57:43;;;;;;;16.90;9.27;;;10.10;99.90;;;;;;4970475;28;20582;-91
2024/04/01 05:00:31;;;;;;;18.05;16.13;;;10.00;99.90;;;;;;4952700;28;20045;-91
2024/04/01 05:02:55;;;;;;;14.57;9.23;;;10.00;99.90;;;;;;4950790;28;20737;-91
2024/04/01 05:05:20;;;;;;;15.15;8.52;;;10.00;99.90;;;;;;4952753;28;20122;-92
2024/04/01 05:07:48;;;;;;;13.98;7.72;;;9.90;99.90;;;;;;4952672;28;20057;-91
2024/04/01 05:10:15;;;;;;;18.00;7.95;;;9.90;99.90;;;;;;4952334;28;20043;-91
2024/04/01 05:12:42;;;;;;;18.70;15.07;;;9.90;99.90;;;;;;4937064;28;20557;-90
2024/04/01 05:15:08;;;;;;;19.30;10.43;;;10.00;99.90;;;;;;4937522;28;20067;-91
2024/04/01 05:17:34;;;;;;;17.33;10.25;;;10.00;99.90;;;;;;4953386;28;20519;-91
2024/04/01 05:20:00;;;;;;;17.85;11.05;;;9.90;99.90;;;;;;4969329;28;20038;-91
2024/04/01 05:22:26;;;;;;;18.55;10.65;;;10.00;99.90;;;;;;4952730;28;20043;-91
2024/04/01 05:24:53;;;;;;;16.38;9.40;;;10.00;99.90;;;;;;4952543;28;20153;-91
2024/04/01 05:27:20;;;;;;;16.33;10.23;;;9.90;99.90;;;;;;4952606;28;20043;-91
2024/04/01 05:29:57;;;;;;;19.33;9.63;;;10.00;99.90;;;;;;4936042;28;20577;-91
2024/04/01 05:32:23;;;;;;;17.33;10.48;;;9.90;99.90;;;;;;4938362;28;20047;-91
2024/04/01 05:34:51;;;;;;;14.05;8.82;;;9.90;99.90;;;;;;4952801;28;20070;-91
2024/04/01 05:37:16;;;;;;;18.13;11.30;;;9.90;99.90;;;;;;4936500;28;20086;-91
2024/04/01 05:39:42;;;;;;;17.90;10.30;;;9.90;99.90;;;;;;4969312;28;20035;-91
2024/04/01 05:42:08;;;;;;;18.48;11.63;;;9.90;99.90;;;;;;4969812;28;20547;-90
2024/04/01 05:44:33;;;;;;;16.98;10.50;;;9.90;99.90;;;;;;4935543;28;20043;-90
2024/04/01 05:46:59;;;;;;;19.40;10.98;;;9.90;99.90;;;;;;4968889;28;20034;-90
2024/04/01 05:49:24;;;;;;;16.13;10.45;;;9.90;99.90;;;;;;4936151;28;20141;-91
2024/04/01 05:51:50;;;;;;;17.70;11.05;;;9.90;99.90;;;;;;4952694;28;20039;-91
2024/04/01 05:54:17;;;;;;;19.13;10.60;;;10.00;99.90;;;;;;4952276;28;20188;-91
2024/04/01 05:56:43;;;;;;;17.77;12.02;;;10.00;99.90;;;;;;4951804;28;20471;-91
2024/04/01 05:59:09;;;;;;;25.08;21.95;;;10.00;99.90;;;;;;4935643;28;20046;-91
2024/04/01 06:01:34;;;;;;;21.20;12.38;;;10.10;99.90;;;;;;4952494;28;20659;-91
2024/04/01 06:04:01;;;;;;;17.92;12.38;;;10.10;99.90;;;;;;4951674;28;20073;-90
2024/04/01 06:06:26;;;;;;;19.80;11.25;;;10.10;99.90;;;;;;4935650;28;20043;-91
2024/04/01 06:08:52;;;;;;;21.17;12.52;;;10.10;99.90;;;;;;4951475;28;20031;-91
2024/04/01 06:11:17;;;;;;;19.00;12.43;;;10.10;99.90;;;;;;4952121;28;20097;-91
2024/04/01 06:13:44;;;;;;;20.02;13.70;;;10.10;99.90;;;;;;4969492;28;20030;-90
2024/04/01 06:16:10;;;;;;;20.02;13.00;;;10.10;99.90;;;;;;4935086;28;20046;-90
2024/04/01 06:18:35;;;;;;;18.55;12.55;;;10.20;99.90;;;;;;4969012;28;20929;-90
2024/04/01 06:21:01;;;;;;;18.20;12.20;;;10.20;99.90;;;;;;4968899;28;20479;-90
2024/04/01 06:23:27;;;;;;;19.15;12.32;;;10.20;99.90;;;;;;4968703;28;20494;-90
2024/04/01 06:25:53;;;;;;;19.85;13.13;;;10.20;99.90;;;;;;4968447;28;20043;-91
2024/04/01 06:28:18;;;;;;;20.08;11.50;;;10.30;99.90;;;;;;4951374;28;20044;-91
2024/04/01 06:30:44;;;;;;;18.70;11.25;;;10.30;99.90;;;;;;4935584;28;20041;-92
2024/04/01 06:33:10;;;;;;;19.60;9.95;;;10.30;99.90;;;;;;4935433;28;20459;-90
2024/04/01 06:35:36;;;;;;;18.85;10.23;;;10.30;99.90;;;;;;4969163;28;20066;-91
2024/04/01 06:38:01;;;;;;;23.25;12.60;;;10.30;99.90;;;;;;4952371;28;20031;-91
2024/04/01 06:40:27;;;;;;;19.30;10.00;;;10.30;99.90;;;;;;4935878;28;20038;-91
2024/04/01 06:42:53;;;;;;;22.13;19.55;;;10.40;99.90;;;;;;4935835;28;20070;-90
2024/04/01 06:45:18;;;;;;;15.85;10.55;;;10.50;99.90;;;;;;4971134;28;20045;-91
2024/04/01 06:47:47;;;;;;;23.88;21.38;;;10.50;99.90;;;;;;4937677;28;20118;-91
2024/04/01 06:50:13;;;;;;;17.90;11.45;;;10.60;99.90;;;;;;4960895;28;20043;-91
2024/04/01 06:52:39;;;;;;;20.38;12.82;;;10.60;99.90;;;;;;4939106;28;20027;-91
2024/04/01 06:55:05;;;;;;;17.42;11.15;;;10.60;99.90;;;;;;4934960;28;20391;-91
2024/04/01 06:57:30;;;;;;;21.92;13.10;;;10.60;99.90;;;;;;4934032;28;20043;-91
2024/04/01 06:59:56;;;;;;;18.80;12.52;;;10.60;99.90;;;;;;4950788;28;20069;-91
2024/04/01 07:02:22;;;;;;;20.35;12.75;;;10.70;99.90;;;;;;4951525;28;20039;-92
2024/04/01 07:04:48;;;;;;;20.08;13.00;;;10.70;99.90;;;;;;4969598;28;20169;-91
2024/04/01 07:07:14;;;;;;;20.23;12.70;;;10.70;99.90;;;;;;4954075;28;20122;-91
2024/04/01 07:09:39;;;;;;;23.85;15.07;;;10.70;99.90;;;;;;4955332;28;20406;-91
2024/04/01 07:12:05;;;;;;;18.23;13.40;;;10.80;99.90;;;;;;4939163;28;20043;-92
2024/04/01 07:14:31;;;;;;;21.23;12.70;;;10.80;99.90;;;;;;4940630;28;20451;-92
2024/04/01 07:16:57;;;;;;;19.20;13.07;;;10.80;99.90;;;;;;4972587;28;20500;-92
2024/04/01 07:19:22;;;;;;;21.88;13.25;;;10.80;99.90;;;;;;4954238;28;20038;-91
2024/04/01 07:21:48;;;;;;;19.65;13.63;;;10.80;99.90;;;;;;4952809;28;20410;-91
2024/04/01 07:24:16;;;;;;;15.70;10.65;;;10.80;99.90;;;;;;4971106;28;20035;-91
2024/04/01 07:26:42;;;;;;;26.13;22.25;;;10.90;99.90;;;;;;4936504;28;20781;-92
2024/04/01 07:29:07;;;;;;;25.02;22.45;;;11.00;99.90;;;;;;4937041;28;20056;-92
2024/04/01 07:31:33;;;;;;;17.17;11.52;;;11.10;99.90;;;;;;4970345;28;20179;-91
2024/04/01 07:33:58;;;;;;;18.02;11.05;;;11.00;99.90;;;;;;4954018;28;20055;-91
2024/04/01 07:36:24;;;;;;;20.10;11.52;;;11.00;99.90;;;;;;4954811;28;20027;-91
2024/04/01 07:38:50;;;;;;;17.70;10.43;;;11.00;99.90;;;;;;4954136;28;20101;-91
2024/04/01 07:41:16;;;;;;;18.60;10.68;;;11.00;99.90;;;;;;4938218;28;20045;-92
2024/04/01 07:43:41;;;;;;;17.38;10.45;;;11.00;99.90;;;;;;4954699;28;20499;-90
2024/04/01 07:46:07;;;;;;;17.23;9.85;;;11.00;99.90;;;;;;4953946;28;20057;-91
2024/04/01 07:48:33;;;;;;;19.45;11.55;;;11.00;99.90;;;;;;4970680;28;20495;-92
2024/04/01 07:51:02;;;;;;;19.92;12.27;;;11.00;99.90;;;;;;4938180;28;20521;-91
2024/04/01 07:53:28;;;;;;;17.90;10.10;;;11.00;99.90;;;;;;4954500;28;20112;-91
2024/04/01 07:55:54;;;;;;;22.80;13.13;;;11.10;99.90;;;;;;4952793;28;20506;-92
2024/04/01 07:58:19;;;;;;;22.10;10.80;;;11.10;99.90;;;;;;4938328;28;20055;-91
2024/04/01 08:00:45;;;;;;;18.00;11.23;;;11.10;99.90;;;;;;4971723;28;20034;-91
2024/04/01 08:03:12;;;;;;;19.35;10.90;;;11.10;99.90;;;;;;4938239;28;20581;-92
2024/04/01 08:05:38;;;;;;;16.10;10.52;;;11.10;99.90;;;;;;4954054;28;20039;-91
2024/04/01 08:08:04;;;;;;;20.10;11.10;;;11.10;99.90;;;;;;4971253;28;20046;-91
2024/04/01 08:10:30;;;;;;;15.75;9.93;;;11.10;99.90;;;;;;4937191;28;20053;-91
2024/04/01 08:12:56;;;;;;;22.20;19.90;;;11.10;99.90;;;;;;4957432;28;20042;-91
2024/04/01 08:15:21;;;;;;;16.67;10.30;;;11.20;99.90;;;;;;4953607;28;20043;-91
2024/04/01 08:17:47;;;;;;;19.50;11.48;;;11.20;99.90;;;;;;4936096;28;20043;-90
2024/04/01 08:20:12;;;;;;;17.60;11.02;;;11.20;99.90;;;;;;4969942;28;20043;-90
2024/04/01 08:22:38;;;;;;;14.80;10.13;;;11.20;99.90;;;;;;4970998;28;20089;-91
2024/04/01 08:25:04;;;;;;;14.88;10.07;;;11.20;99.90;;;;;;4970565;28;20060;-92
2024/04/01 08:27:31;;;;;;;20.02;17.98;;;11.20;99.90;;;;;;4953536;28;20073;-92
2024/04/01 08:29:56;;;;;;;16.10;11.38;;;11.30;99.90;;;;;;4936700;28;20058;-91
2024/04/01 08:32:22;;;;;;;17.80;11.38;;;11.30;99.90;;;;;;4937329;28;20050;-92
2024/04/01 08:34:47;;;;;;;15.18;10.52;;;11.20;99.90;;;;;;4936890;28;20035;-92
2024/04/01 08:37:13;;;;;;;19.75;11.40;;;11.20;99.90;;;;;;4953840;28;20041;-92
2024/04/01 08:39:39;;;;;;;19.77;12.43;;;11.20;99.90;;;;;;4953672;28;20375;-92
2024/04/01 08:42:09;;;;;;;18.80;12.77;;;11.20;99.90;;;;;;4937970;28;20553;-91
2024/04/01 08:44:37;;;;;;;16.67;11.30;;;11.20;99.90;;;;;;4971152;28;20039;-91
2024/04/01 08:47:04;;;;;;;18.35;10.70;;;11.20;99.90;;;;;;4936177;28;20078;-92
2024/04/01 08:49:49;;;;;;;16.00;10.20;;;11.20;99.90;;;;;;4937181;28;20542;-92
2024/04/01 08:52:22;;;;;;;17.95;10.60;;;11.20;99.90;;;;;;4952121;28;20128;-92
2024/04/01 08:54:48;;;;;;;21.17;11.68;;;11.20;99.90;;;;;;4936555;28;20114;-92
2024/04/01 08:57:14;;;;;;;21.83;18.80;;;11.20;99.90;;;;;;4953231;28;20102;-92
2024/04/01 08:59:41;;;;;;;17.52;10.75;;;11.20;99.90;;;;;;4953404;28;20070;-92
2024/04/01 09:02:08;;;;;;;20.08;9.68;;;11.30;99.90;;;;;;4952609;28;20030;-92
2024/04/01 09:04:34;;;;;;;17.58;9.15;;;11.30;99.90;;;;;;4936926;28;20038;-91
2024/04/01 09:06:59;;;;;;;14.73;8.95;;;11.30;99.90;;;;;;4952760;28;20039;-92
2024/04/01 09:09:26;;;;;;;15.07;9.48;;;11.20;99.90;;;;;;4936306;28;20065;-92
2024/04/01 09:11:52;;;;;;;15.48;8.55;;;11.20;99.90;;;;;;4936897;28;20043;-92
2024/04/01 09:14:18;;;;;;;14.00;9.20;;;11.30;99.90;;;;;;4937648;28;20057;-93
2024/04/01 09:16:48;;;;;;;15.73;8.23;;;11.20;99.90;;;;;;4954272;28;20119;-91
2024/04/01 09:19:16;;;;;;;20.35;16.73;;;11.20;99.90;;;;;;4954258;28;20043;-91
2024/04/01 09:21:42;;;;;;;16.02;8.40;;;11.30;99.90;;;;;;4972432;28;20027;-91
2024/04/01 09:24:09;;;;;;;15.77;9.20;;;11.30;99.90;;;;;;4957737;28;20102;-92
2024/04/01 09:26:35;;;;;;;15.70;9.40;;;11.20;99.90;;;;;;4979088;28;20031;-91
2024/04/01 09:29:02;;;;;;;15.80;9.43;;;11.20;99.90;;;;;;4951670;28;20505;-91
2024/04/01 09:31:28;;;;;;;15.82;8.45;;;11.30;99.90;;;;;;4969272;28;20069;-92
2024/04/01 09:33:54;;;;;;;15.93;10.13;;;11.30;99.90;;;;;;4936488;28;20495;-91
2024/04/01 09:36:20;;;;;;;16.77;8.63;;;11.30;99.90;;;;;;4936359;28;20053;-91
2024/04/01 09:38:46;;;;;;;15.50;9.32;;;11.30;99.90;;;;;;4952258;28;20046;-92
2024/04/01 09:41:12;;;;;;;14.57;8.32;;;11.30;99.90;;;;;;4969168;28;20035;-93
2024/04/01 09:43:38;;;;;;;22.27;19.92;;;11.30;99.90;;;;;;4935622;28;20051;-92
2024/04/01 09:46:03;;;;;;;14.05;8.55;;;11.40;99.90;;;;;;4935565;28;20039;-90
2024/04/01 09:48:29;;;;;;;14.30;7.50;;;11.40;99.90;;;;;;4951396;28;20038;-91
2024/04/01 09:50:59;;;;;;;11.30;5.60;;;11.50;99.90;;;;;;4953051;28;20483;-91
2024/04/01 09:53:26;;;;;;;14.70;7.90;;;11.50;99.90;;;;;;4936538;28;20047;-92
2024/04/01 09:56:00;;;;;;;9.57;5.63;;;11.50;99.90;;;;;;4968987;28;20070;-91
2024/04/01 09:58:47;;;;;;;10.00;5.88;;;11.50;99.90;;;;;;4935086;28;20122;-91
2024/04/01 10:01:33;;;;;;;12.00;5.88;;;11.50;99.90;;;;;;4950644;28;20050;-92
2024/04/01 10:04:18;;;;;;;14.05;6.35;;;11.50;99.90;;;;;;4951859;28;20137;-91
2024/04/01 10:07:11;;;;;;;13.75;7.30;;;11.60;99.90;;;;;;4935208;28;20039;-91
2024/04/01 10:09:57;;;;;;;13.27;6.55;;;11.70;99.90;;;;;;4935338;28;20098;-91
2024/04/01 10:12:42;;;;;;;17.08;15.25;;;11.80;99.90;;;;;;4922525;28;20046;-91
2024/04/01 10:15:45;;;;;;;15.75;8.43;;;11.90;99.90;;;;;;4949830;28;20111;-91
2024/04/01 10:18:44;;;;;;;13.70;8.25;;;12.00;99.90;;;;;;4952198;28;20706;-91
2024/04/01 10:21:28;;;;;;;12.07;7.05;;;12.00;99.90;;;;;;4951627;28;20047;-92
2024/04/01 10:24:15;;;;;;;14.30;8.45;;;12.10;99.90;;;;;;4968201;28;20669;-91
2024/04/01 10:26:59;;;;;;;13.77;7.40;;;12.10;99.90;;;;;;4968016;28;20043;-91
2024/04/01 10:30:01;;;;;;;14.55;8.73;;;12.20;99.90;;;;;;4968363;28;20031;-91
2024/04/01 10:32:58;;;;;;;10.55;6.45;;;12.20;99.90;;;;;;4934382;28;20045;-92
2024/04/01 10:35:51;;;;;;;10.98;7.60;;;12.30;99.90;;;;;;4934514;28;20042;-92
2024/04/01 10:38:29;;;;;;;11.95;8.50;;;12.30;99.90;;;;;;4951175;28;20043;-92
2024/04/01 10:40:55;;;;;;;15.85;8.05;;;12.40;99.90;;;;;;4952700;28;20852;-93
2024/04/01 10:43:42;;;;;;;13.25;7.57;;;12.40;99.90;;;;;;4941752;28;20713;-91
2024/04/01 10:46:23;;;;;;;12.15;6.75;;;12.40;99.90;;;;;;4941562;28;20049;-92
2024/04/01 10:49:10;;;;;;;9.50;5.60;;;12.40;99.90;;;;;;4958768;28;20510;-92
2024/04/01 10:52:21;;;;;;;11.25;6.10;;;12.30;99.90;;;;;;4941714;28;20054;-92
2024/04/01 10:54:56;;;;;;;11.52;6.22;;;12.30;99.90;;;;;;4942343;28;20042;-91
2024/04/01 10:58:05;;;;;;;9.85;6.20;;;12.30;99.90;;;;;;4942470;28;20101;-92
2024/04/01 11:00:48;;;;;;;12.80;8.35;;;12.30;99.90;;;;;;4957919;28;20035;-92
2024/04/01 11:03:51;;;;;;;13.07;8.48;;;12.20;99.90;;;;;;4974906;28;20052;-92
2024/04/01 11:06:37;;;;;;;17.30;15.60;;;12.20;99.90;;;;;;4940967;28;20193;-92
2024/04/01 11:09:40;;;;;;;12.77;8.23;;;12.30;99.90;;;;;;4955757;28;20491;-91
2024/04/01 11:12:09;;;;;;;;;;;12.20;99.90;;;;;;4956785;28;20047;-92
2024/04/01 11:14:39;;;;;;;11.00;8.05;;;12.30;99.90;;;;;;4957703;28;19925;-90
2024/04/01 11:17:07;;;;;;;22.30;20.30;;;12.30;99.90;;;;;;4975318;28;20047;-92
2024/04/01 11:19:32;;;;;;;20.08;18.23;;;12.30;99.90;;;;;;4941594;28;20039;-92
2024/04/01 11:22:03;;;;;;;15.38;8.48;;;12.30;99.90;;;;;;4957781;28;20426;-92
2024/04/01 11:24:33;;;;;;;16.45;8.85;;;12.30;99.90;;;;;;4958118;28;20031;-92
2024/04/01 11:27:43;;;;;;;13.73;8.88;;;12.20;99.90;;;;;;4940576;28;20743;-93
2024/04/01 11:30:33;;;;;;;13.05;7.75;;;12.20;99.90;;;;;;4880071;29;20032;-91
2024/04/01 11:33:09;;;;;;;10.73;6.63;;;12.10;99.90;;;;;;4864662;29;20119;-90
2024/04/01 11:35:51;;;;;;;17.50;9.00;;;12.00;99.90;;;;;;4881164;29;20076;-91
2024/04/01 11:38:50;;;;;;;12.73;7.25;;;12.00;99.90;;;;;;4895561;29;20052;-91
2024/04/01 11:41:19;;;;;;;13.82;8.27;;;11.90;99.90;;;;;;4894548;29;20145;-92
2024/04/01 11:43:47;;;;;;;14.30;8.95;;;11.80;99.90;;;;;;4895021;29;20545;-91
2024/04/01 11:46:14;;;;;;;12.95;7.93;;;11.80;99.90;;;;;;4880753;29;20518;-91
2024/04/01 11:48:40;;;;;;;13.15;7.45;;;11.70;99.90;;;;;;4878841;29;20044;-91
2024/04/01 11:51:06;;;;;;;12.77;8.45;;;11.70;99.90;;;;;;4878381;29;20421;-92
2024/04/01 11:53:41;;;;;;;20.65;18.75;;;11.70;99.90;;;;;;4878288;29;20532;-91
2024/04/01 11:56:07;;;;;;;11.95;7.45;;;11.70;99.90;;;;;;4890642;29;20064;-91
2024/04/01 11:58:32;;;;;;;14.15;7.90;;;11.70;99.90;;;;;;4878846;29;20048;-91
2024/04/01 12:00:59;;;;;;;13.52;8.93;;;11.70;99.90;;;;;;4943760;28;20046;-91
2024/04/01 12:03:39;;;;;;;16.20;7.32;;;11.80;99.90;;;;;;4975732;28;20035;-91
2024/04/01 12:06:06;;;;;;;9.77;4.90;;;11.90;99.90;;;;;;4953214;28;20092;-91
2024/04/01 12:08:32;;;;;;;10.75;6.32;;;11.90;99.90;;;;;;4953485;28;20042;-92
2024/04/01 12:10:59;;;;;;;17.60;15.98;;;12.00;99.90;;;;;;4938025;28;20126;-92
2024/04/01 12:13:26;;;;;;;10.93;6.07;;;12.10;99.90;;;;;;4938233;28;20419;-91
2024/04/01 12:15:56;;;;;;;10.05;5.82;;;12.00;99.90;;;;;;4955641;28;20046;-91
2024/04/01 12:18:23;;;;;;;12.68;7.28;;;12.00;99.90;;;;;;4971301;28;20043;-91
2024/04/01 12:20:53;;;;;;;10.18;5.70;;;12.00;99.90;;;;;;4937712;28;20050;-93
2024/04/01 12:23:27;;;;;;;13.32;11.98;;;12.00;99.90;;;;;;4953687;28;20026;-92
2024/04/01 12:26:04;;;;;;;10.07;6.07;;;12.10;99.90;;;;;;4953944;28;20121;-92
2024/04/01 12:28:30;;;;;;;6.22;3.78;;;12.10;99.90;;;;;;4937365;28;20396;-92
2024/04/01 12:30:58;;;;;;;9.27;4.40;;;12.00;99.90;;;;;;4970822;28;20648;-91
2024/04/01 12:33:28;;;;;;;6.57;3.50;;;12.00;99.90;;;;;;4971474;28;20494;-92
2024/04/01 12:35:54;;;;;;;8.35;4.53;;;12.00;99.90;;;;;;4937695;28;20068;-92
2024/04/01 12:38:23;;;;;;;10.20;8.65;;;12.10;99.90;;;;;;4970973;28;20122;-92
2024/04/01 12:40:54;;;;;;;6.68;3.50;;;12.10;99.90;;;;;;4953268;28;20034;-92
2024/04/01 12:43:26;;;;;;;8.55;4.22;;;12.10;99.90;;;;;;4969867;28;20046;-91